sensor_id;sensor_type;location;lat;lon;timestamp;P1;durP1;ratioP1;P2;durP2;ratioP2
13731;SDS011;6937;56.096;12.664;2022-08-24T00:00:14;5.28;;;2.63;;
13731;SDS011;6937;56.096;12.664;2022-08-24T00:02:42;4.53;;;2.28;;
13731;SDS011;6937;56.096;12.664;2022-08-24T00:05:08;4.80;;;2.40;;
13731;SDS011;6937;56.096;12.664;2022-08-24T00:07:34;4.85;;;2.47;;
13731;SDS011;6937;56.096;12.664;2022-08-24T00:09:59;3.40;;;2.30;;
13731;SDS011;6937;56.096;12.664;2022-08-24T00:12:25;4.70;;;2.38;;
13731;SDS011;6937;56.096;12.664;2022-08-24T00:14:52;5.88;;;2.30;;
13731;SDS011;6937;56.096;12.664;2022-08-24T00:17:19;3.97;;;2.03;;
13731;SDS011;6937;56.096;12.664;2022-08-24T00:19:44;3.92;;;2.40;;
13731;SDS011;6937;56.096;12.664;2022-08-24T00:22:11;3.42;;;2.13;;
13731;SDS011;6937;56.096;12.664;2022-08-24T00:24:37;3.10;;;2.30;;
13731;SDS011;6937;56.096;12.664;2022-08-24T00:27:03;3.10;;;2.35;;
13731;SDS011;6937;56.096;12.664;2022-08-24T00:29:30;2.20;;;1.83;;
13731;SDS011;6937;56.096;12.664;2022-08-24T00:31:56;5.63;;;2.05;;
13731;SDS011;6937;56.096;12.664;2022-08-24T00:34:21;5.60;;;2.50;;
13731;SDS011;6937;56.096;12.664;2022-08-24T00:36:47;3.25;;;2.03;;
13731;SDS011;6937;56.096;12.664;2022-08-24T00:39:12;4.70;;;2.30;;
13731;SDS011;6937;56.096;12.664;2022-08-24T00:41:39;4.25;;;2.00;;
13731;SDS011;6937;56.096;12.664;2022-08-24T00:44:09;3.00;;;2.00;;
13731;SDS011;6937;56.096;12.664;2022-08-24T00:52:30;3.75;;;2.70;;
13731;SDS011;6937;56.096;12.664;2022-08-24T00:55:09;3.92;;;2.20;;
13731;SDS011;6937;56.096;12.664;2022-08-24T00:57:43;1.85;;;1.67;;
13731;SDS011;6937;56.096;12.664;2022-08-24T01:00:17;3.65;;;1.80;;
13731;SDS011;6937;56.096;12.664;2022-08-24T01:02:46;3.80;;;2.10;;
13731;SDS011;6937;56.096;12.664;2022-08-24T01:05:15;3.80;;;1.98;;
13731;SDS011;6937;56.096;12.664;2022-08-24T01:07:43;4.63;;;2.33;;
13731;SDS011;6937;56.096;12.664;2022-08-24T01:10:13;2.50;;;2.30;;
13731;SDS011;6937;56.096;12.664;2022-08-24T01:12:42;4.43;;;2.70;;
13731;SDS011;6937;56.096;12.664;2022-08-24T01:15:13;3.28;;;2.90;;
13731;SDS011;6937;56.096;12.664;2022-08-24T01:17:40;4.25;;;2.90;;
13731;SDS011;6937;56.096;12.664;2022-08-24T01:20:38;4.82;;;3.10;;
13731;SDS011;6937;56.096;12.664;2022-08-24T01:23:11;4.93;;;3.13;;
13731;SDS011;6937;56.096;12.664;2022-08-24T01:25:49;6.20;;;3.42;;
13731;SDS011;6937;56.096;12.664;2022-08-24T01:28:15;4.60;;;2.80;;
13731;SDS011;6937;56.096;12.664;2022-08-24T01:30:43;3.22;;;2.45;;
13731;SDS011;6937;56.096;12.664;2022-08-24T01:33:10;2.75;;;2.13;;
13731;SDS011;6937;56.096;12.664;2022-08-24T01:35:47;3.45;;;2.50;;
13731;SDS011;6937;56.096;12.664;2022-08-24T01:38:12;2.83;;;2.10;;
13731;SDS011;6937;56.096;12.664;2022-08-24T01:40:45;3.70;;;2.30;;
13731;SDS011;6937;56.096;12.664;2022-08-24T01:43:16;3.45;;;2.50;;
13731;SDS011;6937;56.096;12.664;2022-08-24T01:45:42;4.05;;;2.60;;
13731;SDS011;6937;56.096;12.664;2022-08-24T01:48:08;3.80;;;2.70;;
13731;SDS011;6937;56.096;12.664;2022-08-24T01:50:33;2.90;;;2.50;;
13731;SDS011;6937;56.096;12.664;2022-08-24T01:53:00;3.58;;;2.40;;
13731;SDS011;6937;56.096;12.664;2022-08-24T01:55:28;4.93;;;3.03;;
13731;SDS011;6937;56.096;12.664;2022-08-24T01:57:54;4.13;;;2.80;;
13731;SDS011;6937;56.096;12.664;2022-08-24T02:00:20;2.58;;;2.35;;
13731;SDS011;6937;56.096;12.664;2022-08-24T02:02:46;2.88;;;2.30;;
13731;SDS011;6937;56.096;12.664;2022-08-24T02:05:12;2.53;;;2.33;;
13731;SDS011;6937;56.096;12.664;2022-08-24T02:07:39;3.08;;;2.40;;
13731;SDS011;6937;56.096;12.664;2022-08-24T02:10:06;3.00;;;2.30;;
13731;SDS011;6937;56.096;12.664;2022-08-24T02:12:35;3.97;;;2.50;;
13731;SDS011;6937;56.096;12.664;2022-08-24T02:15:04;3.30;;;2.45;;
13731;SDS011;6937;56.096;12.664;2022-08-24T02:17:32;2.63;;;2.22;;
13731;SDS011;6937;56.096;12.664;2022-08-24T02:19:58;3.33;;;2.50;;
13731;SDS011;6937;56.096;12.664;2022-08-24T02:22:24;4.50;;;2.70;;
13731;SDS011;6937;56.096;12.664;2022-08-24T02:24:49;2.97;;;2.58;;
13731;SDS011;6937;56.096;12.664;2022-08-24T02:27:15;4.15;;;2.15;;
13731;SDS011;6937;56.096;12.664;2022-08-24T02:29:41;3.28;;;2.17;;
13731;SDS011;6937;56.096;12.664;2022-08-24T02:32:06;3.17;;;2.35;;
13731;SDS011;6937;56.096;12.664;2022-08-24T02:34:32;3.70;;;2.40;;
13731;SDS011;6937;56.096;12.664;2022-08-24T02:36:57;3.53;;;2.15;;
13731;SDS011;6937;56.096;12.664;2022-08-24T02:39:24;3.03;;;2.20;;
13731;SDS011;6937;56.096;12.664;2022-08-24T02:41:50;2.42;;;1.83;;
13731;SDS011;6937;56.096;12.664;2022-08-24T02:44:16;3.20;;;2.20;;
13731;SDS011;6937;56.096;12.664;2022-08-24T02:46:42;2.72;;;1.80;;
13731;SDS011;6937;56.096;12.664;2022-08-24T02:49:07;2.28;;;1.90;;
13731;SDS011;6937;56.096;12.664;2022-08-24T02:51:33;2.92;;;2.03;;
13731;SDS011;6937;56.096;12.664;2022-08-24T02:53:59;3.35;;;2.08;;
13731;SDS011;6937;56.096;12.664;2022-08-24T02:56:27;3.60;;;2.00;;
13731;SDS011;6937;56.096;12.664;2022-08-24T02:58:56;1.83;;;1.73;;
13731;SDS011;6937;56.096;12.664;2022-08-24T03:01:23;3.53;;;2.10;;
13731;SDS011;6937;56.096;12.664;2022-08-24T03:03:49;2.20;;;1.98;;
13731;SDS011;6937;56.096;12.664;2022-08-24T03:06:14;2.13;;;1.92;;
13731;SDS011;6937;56.096;12.664;2022-08-24T03:08:40;1.95;;;1.77;;
13731;SDS011;6937;56.096;12.664;2022-08-24T03:11:06;2.13;;;1.83;;
13731;SDS011;6937;56.096;12.664;2022-08-24T03:13:32;2.10;;;1.90;;
13731;SDS011;6937;56.096;12.664;2022-08-24T03:15:58;2.92;;;1.88;;
13731;SDS011;6937;56.096;12.664;2022-08-24T03:18:24;2.70;;;2.05;;
13731;SDS011;6937;56.096;12.664;2022-08-24T03:20:51;2.45;;;1.67;;
13731;SDS011;6937;56.096;12.664;2022-08-24T03:23:18;1.75;;;1.50;;
13731;SDS011;6937;56.096;12.664;2022-08-24T03:25:44;3.03;;;1.88;;
13731;SDS011;6937;56.096;12.664;2022-08-24T03:28:10;1.50;;;1.40;;
13731;SDS011;6937;56.096;12.664;2022-08-24T03:30:36;3.47;;;1.67;;
13731;SDS011;6937;56.096;12.664;2022-08-24T03:33:03;2.60;;;1.50;;
13731;SDS011;6937;56.096;12.664;2022-08-24T03:35:30;2.50;;;1.65;;
13731;SDS011;6937;56.096;12.664;2022-08-24T03:37:56;1.63;;;1.52;;
13731;SDS011;6937;56.096;12.664;2022-08-24T03:40:21;2.80;;;1.60;;
13731;SDS011;6937;56.096;12.664;2022-08-24T03:42:47;1.95;;;1.60;;
13731;SDS011;6937;56.096;12.664;2022-08-24T03:45:13;3.38;;;1.83;;
13731;SDS011;6937;56.096;12.664;2022-08-24T03:47:39;1.85;;;1.50;;
13731;SDS011;6937;56.096;12.664;2022-08-24T03:50:04;1.55;;;1.40;;
13731;SDS011;6937;56.096;12.664;2022-08-24T03:52:32;1.60;;;1.50;;
13731;SDS011;6937;56.096;12.664;2022-08-24T03:54:57;2.58;;;1.20;;
13731;SDS011;6937;56.096;12.664;2022-08-24T03:57:23;2.60;;;1.40;;
13731;SDS011;6937;56.096;12.664;2022-08-24T03:59:49;2.28;;;1.40;;
13731;SDS011;6937;56.096;12.664;2022-08-24T04:02:15;2.17;;;1.70;;
13731;SDS011;6937;56.096;12.664;2022-08-24T04:04:40;2.63;;;1.60;;
13731;SDS011;6937;56.096;12.664;2022-08-24T04:07:06;2.47;;;1.70;;
13731;SDS011;6937;56.096;12.664;2022-08-24T04:09:32;2.83;;;1.67;;
13731;SDS011;6937;56.096;12.664;2022-08-24T04:11:57;2.47;;;1.50;;
13731;SDS011;6937;56.096;12.664;2022-08-24T04:14:23;6.35;;;1.83;;
13731;SDS011;6937;56.096;12.664;2022-08-24T04:16:49;4.88;;;1.80;;
13731;SDS011;6937;56.096;12.664;2022-08-24T04:19:14;2.60;;;1.70;;
13731;SDS011;6937;56.096;12.664;2022-08-24T04:21:40;2.10;;;1.73;;
13731;SDS011;6937;56.096;12.664;2022-08-24T04:24:08;3.75;;;1.70;;
13731;SDS011;6937;56.096;12.664;2022-08-24T04:26:35;3.53;;;1.90;;
13731;SDS011;6937;56.096;12.664;2022-08-24T04:29:03;3.75;;;1.73;;
13731;SDS011;6937;56.096;12.664;2022-08-24T04:31:29;1.98;;;1.75;;
13731;SDS011;6937;56.096;12.664;2022-08-24T04:33:55;2.90;;;1.83;;
13731;SDS011;6937;56.096;12.664;2022-08-24T04:36:21;3.25;;;1.90;;
13731;SDS011;6937;56.096;12.664;2022-08-24T04:38:47;2.60;;;1.80;;
13731;SDS011;6937;56.096;12.664;2022-08-24T04:41:14;1.77;;;1.63;;
13731;SDS011;6937;56.096;12.664;2022-08-24T04:43:44;2.42;;;1.83;;
13731;SDS011;6937;56.096;12.664;2022-08-24T04:46:10;1.88;;;1.65;;
13731;SDS011;6937;56.096;12.664;2022-08-24T04:48:41;2.08;;;1.83;;
13731;SDS011;6937;56.096;12.664;2022-08-24T04:51:08;3.83;;;1.95;;
13731;SDS011;6937;56.096;12.664;2022-08-24T04:53:36;3.35;;;1.60;;
13731;SDS011;6937;56.096;12.664;2022-08-24T04:56:02;5.85;;;2.33;;
13731;SDS011;6937;56.096;12.664;2022-08-24T04:58:29;8.10;;;2.22;;
13731;SDS011;6937;56.096;12.664;2022-08-24T05:00:55;3.60;;;1.95;;
13731;SDS011;6937;56.096;12.664;2022-08-24T05:03:21;2.28;;;1.70;;
13731;SDS011;6937;56.096;12.664;2022-08-24T05:05:49;5.13;;;2.22;;
13731;SDS011;6937;56.096;12.664;2022-08-24T05:08:16;3.10;;;1.90;;
13731;SDS011;6937;56.096;12.664;2022-08-24T05:10:43;3.47;;;1.90;;
13731;SDS011;6937;56.096;12.664;2022-08-24T05:13:11;2.60;;;1.60;;
13731;SDS011;6937;56.096;12.664;2022-08-24T05:15:42;3.05;;;1.85;;
13731;SDS011;6937;56.096;12.664;2022-08-24T05:18:10;4.20;;;1.80;;
13731;SDS011;6937;56.096;12.664;2022-08-24T05:20:38;3.28;;;1.60;;
13731;SDS011;6937;56.096;12.664;2022-08-24T05:23:05;2.10;;;1.63;;
13731;SDS011;6937;56.096;12.664;2022-08-24T05:25:30;1.77;;;1.67;;
13731;SDS011;6937;56.096;12.664;2022-08-24T05:27:56;2.00;;;1.77;;
13731;SDS011;6937;56.096;12.664;2022-08-24T05:30:22;2.72;;;1.90;;
13731;SDS011;6937;56.096;12.664;2022-08-24T05:32:47;2.50;;;1.80;;
13731;SDS011;6937;56.096;12.664;2022-08-24T05:35:13;4.22;;;1.83;;
13731;SDS011;6937;56.096;12.664;2022-08-24T05:37:39;3.65;;;2.30;;
13731;SDS011;6937;56.096;12.664;2022-08-24T05:40:05;4.05;;;2.00;;
13731;SDS011;6937;56.096;12.664;2022-08-24T05:42:33;4.03;;;2.08;;
13731;SDS011;6937;56.096;12.664;2022-08-24T05:44:59;3.75;;;2.10;;
13731;SDS011;6937;56.096;12.664;2022-08-24T05:47:24;2.58;;;2.10;;
13731;SDS011;6937;56.096;12.664;2022-08-24T05:49:50;4.97;;;2.10;;
13731;SDS011;6937;56.096;12.664;2022-08-24T05:52:21;3.08;;;2.10;;
13731;SDS011;6937;56.096;12.664;2022-08-24T05:54:54;2.78;;;1.88;;
13731;SDS011;6937;56.096;12.664;2022-08-24T05:57:21;5.40;;;2.03;;
13731;SDS011;6937;56.096;12.664;2022-08-24T05:59:48;3.28;;;1.95;;
13731;SDS011;6937;56.096;12.664;2022-08-24T06:02:14;3.67;;;2.10;;
13731;SDS011;6937;56.096;12.664;2022-08-24T06:04:39;3.20;;;2.00;;
13731;SDS011;6937;56.096;12.664;2022-08-24T06:07:05;3.47;;;1.58;;
13731;SDS011;6937;56.096;12.664;2022-08-24T06:09:35;2.88;;;1.90;;
13731;SDS011;6937;56.096;12.664;2022-08-24T06:12:01;3.95;;;2.03;;
13731;SDS011;6937;56.096;12.664;2022-08-24T06:14:27;3.83;;;1.88;;
13731;SDS011;6937;56.096;12.664;2022-08-24T06:16:52;2.63;;;1.58;;
13731;SDS011;6937;56.096;12.664;2022-08-24T06:19:18;4.13;;;1.88;;
13731;SDS011;6937;56.096;12.664;2022-08-24T06:21:45;5.10;;;1.60;;
13731;SDS011;6937;56.096;12.664;2022-08-24T06:24:12;6.55;;;1.70;;
13731;SDS011;6937;56.096;12.664;2022-08-24T06:26:40;5.70;;;1.60;;
13731;SDS011;6937;56.096;12.664;2022-08-24T06:29:28;4.75;;;1.50;;
13731;SDS011;6937;56.096;12.664;2022-08-24T06:31:54;3.40;;;1.45;;
13731;SDS011;6937;56.096;12.664;2022-08-24T06:34:21;3.65;;;1.80;;
13731;SDS011;6937;56.096;12.664;2022-08-24T06:36:48;4.43;;;1.35;;
13731;SDS011;6937;56.096;12.664;2022-08-24T06:39:14;7.07;;;1.70;;
13731;SDS011;6937;56.096;12.664;2022-08-24T06:41:39;7.55;;;1.65;;
13731;SDS011;6937;56.096;12.664;2022-08-24T06:44:05;8.95;;;1.75;;
13731;SDS011;6937;56.096;12.664;2022-08-24T06:46:32;2.25;;;1.40;;
13731;SDS011;6937;56.096;12.664;2022-08-24T06:48:57;1.50;;;1.30;;
13731;SDS011;6937;56.096;12.664;2022-08-24T06:51:23;2.50;;;1.20;;
13731;SDS011;6937;56.096;12.664;2022-08-24T06:53:49;2.38;;;1.27;;
13731;SDS011;6937;56.096;12.664;2022-08-24T06:56:16;4.20;;;1.30;;
13731;SDS011;6937;56.096;12.664;2022-08-24T06:58:42;3.88;;;1.45;;
13731;SDS011;6937;56.096;12.664;2022-08-24T07:01:13;5.38;;;1.60;;
13731;SDS011;6937;56.096;12.664;2022-08-24T07:03:41;6.25;;;1.40;;
13731;SDS011;6937;56.096;12.664;2022-08-24T07:06:08;3.33;;;1.45;;
13731;SDS011;6937;56.096;12.664;2022-08-24T07:08:34;3.00;;;1.50;;
13731;SDS011;6937;56.096;12.664;2022-08-24T07:11:00;7.03;;;1.50;;
13731;SDS011;6937;56.096;12.664;2022-08-24T07:13:26;2.83;;;1.50;;
13731;SDS011;6937;56.096;12.664;2022-08-24T07:15:55;5.07;;;1.58;;
13731;SDS011;6937;56.096;12.664;2022-08-24T07:18:20;4.03;;;1.30;;
13731;SDS011;6937;56.096;12.664;2022-08-24T07:20:46;4.05;;;1.33;;
13731;SDS011;6937;56.096;12.664;2022-08-24T07:23:12;4.65;;;1.10;;
13731;SDS011;6937;56.096;12.664;2022-08-24T07:25:39;2.88;;;1.35;;
13731;SDS011;6937;56.096;12.664;2022-08-24T07:28:06;3.80;;;1.13;;
13731;SDS011;6937;56.096;12.664;2022-08-24T07:30:31;2.15;;;1.17;;
13731;SDS011;6937;56.096;12.664;2022-08-24T07:32:57;4.00;;;1.15;;
13731;SDS011;6937;56.096;12.664;2022-08-24T07:35:23;2.88;;;0.90;;
13731;SDS011;6937;56.096;12.664;2022-08-24T07:37:50;3.25;;;0.90;;
13731;SDS011;6937;56.096;12.664;2022-08-24T07:40:16;2.20;;;0.98;;
13731;SDS011;6937;56.096;12.664;2022-08-24T07:42:42;3.72;;;1.05;;
13731;SDS011;6937;56.096;12.664;2022-08-24T07:45:12;3.75;;;1.27;;
13731;SDS011;6937;56.096;12.664;2022-08-24T07:47:37;1.95;;;1.13;;
13731;SDS011;6937;56.096;12.664;2022-08-24T07:50:03;4.13;;;1.10;;
13731;SDS011;6937;56.096;12.664;2022-08-24T07:52:29;4.50;;;1.10;;
13731;SDS011;6937;56.096;12.664;2022-08-24T07:54:56;1.45;;;0.90;;
13731;SDS011;6937;56.096;12.664;2022-08-24T07:57:21;1.80;;;0.90;;
13731;SDS011;6937;56.096;12.664;2022-08-24T07:59:47;3.45;;;0.80;;
13731;SDS011;6937;56.096;12.664;2022-08-24T08:02:12;3.08;;;0.80;;
13731;SDS011;6937;56.096;12.664;2022-08-24T08:04:38;2.15;;;0.80;;
13731;SDS011;6937;56.096;12.664;2022-08-24T08:07:04;2.17;;;0.82;;
13731;SDS011;6937;56.096;12.664;2022-08-24T08:09:31;4.50;;;1.05;;
13731;SDS011;6937;56.096;12.664;2022-08-24T08:11:57;2.92;;;0.90;;
13731;SDS011;6937;56.096;12.664;2022-08-24T08:14:22;1.02;;;0.70;;
13731;SDS011;6937;56.096;12.664;2022-08-24T08:16:47;1.35;;;0.77;;
13731;SDS011;6937;56.096;12.664;2022-08-24T08:19:13;1.27;;;0.70;;
13731;SDS011;6937;56.096;12.664;2022-08-24T08:21:57;1.13;;;0.85;;
13731;SDS011;6937;56.096;12.664;2022-08-24T08:24:41;1.67;;;1.00;;
13731;SDS011;6937;56.096;12.664;2022-08-24T08:27:08;3.60;;;0.63;;
13731;SDS011;6937;56.096;12.664;2022-08-24T08:29:34;3.03;;;0.80;;
13731;SDS011;6937;56.096;12.664;2022-08-24T08:32:04;2.83;;;1.00;;
13731;SDS011;6937;56.096;12.664;2022-08-24T08:34:29;3.33;;;0.93;;
13731;SDS011;6937;56.096;12.664;2022-08-24T08:36:55;4.32;;;0.90;;
13731;SDS011;6937;56.096;12.664;2022-08-24T08:39:21;1.90;;;0.73;;
13731;SDS011;6937;56.096;12.664;2022-08-24T08:50:06;2.08;;;0.90;;
13731;SDS011;6937;56.096;12.664;2022-08-24T08:58:05;4.18;;;0.90;;
13731;SDS011;6937;56.096;12.664;2022-08-24T09:01:16;4.20;;;1.08;;
13731;SDS011;6937;56.096;12.664;2022-08-24T09:09:35;5.47;;;1.00;;
13731;SDS011;6937;56.096;12.664;2022-08-24T09:17:50;3.95;;;1.10;;
13731;SDS011;6937;56.096;12.664;2022-08-24T09:47:43;5.43;;;1.08;;
13731;SDS011;6937;56.096;12.664;2022-08-24T09:50:41;4.00;;;1.00;;
13731;SDS011;6937;56.096;12.664;2022-08-24T10:05:08;2.25;;;0.80;;
13731;SDS011;6937;56.096;12.664;2022-08-24T10:15:40;0.93;;;0.70;;
13731;SDS011;6937;56.096;12.664;2022-08-24T10:18:14;2.30;;;0.80;;
13731;SDS011;6937;56.096;12.664;2022-08-24T10:21:11;3.70;;;1.02;;
13731;SDS011;6937;56.096;12.664;2022-08-24T10:23:49;3.25;;;0.93;;
13731;SDS011;6937;56.096;12.664;2022-08-24T10:26:32;3.55;;;0.73;;
13731;SDS011;6937;56.096;12.664;2022-08-24T10:32:03;2.60;;;1.20;;
13731;SDS011;6937;56.096;12.664;2022-08-24T10:34:52;1.70;;;0.80;;
13731;SDS011;6937;56.096;12.664;2022-08-24T10:37:37;1.80;;;0.70;;
13731;SDS011;6937;56.096;12.664;2022-08-24T10:43:37;4.50;;;0.98;;
13731;SDS011;6937;56.096;12.664;2022-08-24T10:54:18;1.40;;;0.85;;
13731;SDS011;6937;56.096;12.664;2022-08-24T10:59:26;4.47;;;1.38;;
13731;SDS011;6937;56.096;12.664;2022-08-24T11:01:59;5.88;;;1.10;;
13731;SDS011;6937;56.096;12.664;2022-08-24T11:04:27;2.38;;;1.10;;
13731;SDS011;6937;56.096;12.664;2022-08-24T11:07:08;1.65;;;0.77;;
13731;SDS011;6937;56.096;12.664;2022-08-24T11:09:46;1.75;;;0.70;;
13731;SDS011;6937;56.096;12.664;2022-08-24T11:14:51;1.10;;;0.80;;
13731;SDS011;6937;56.096;12.664;2022-08-24T11:17:20;2.50;;;0.80;;
13731;SDS011;6937;56.096;12.664;2022-08-24T11:19:47;2.15;;;0.82;;
13731;SDS011;6937;56.096;12.664;2022-08-24T11:25:24;2.28;;;0.82;;
13731;SDS011;6937;56.096;12.664;2022-08-24T11:27:56;0.88;;;0.80;;
13731;SDS011;6937;56.096;12.664;2022-08-24T11:30:28;2.50;;;1.13;;
13731;SDS011;6937;56.096;12.664;2022-08-24T11:33:01;2.13;;;0.73;;
13731;SDS011;6937;56.096;12.664;2022-08-24T11:41:08;2.90;;;1.15;;
13731;SDS011;6937;56.096;12.664;2022-08-24T11:49:50;3.83;;;1.08;;
13731;SDS011;6937;56.096;12.664;2022-08-24T11:57:35;2.28;;;0.88;;
13731;SDS011;6937;56.096;12.664;2022-08-24T12:02:41;3.30;;;1.00;;
13731;SDS011;6937;56.096;12.664;2022-08-24T12:08:42;3.30;;;1.33;;
13731;SDS011;6937;56.096;12.664;2022-08-24T12:14:02;1.85;;;1.23;;
13731;SDS011;6937;56.096;12.664;2022-08-24T12:19:39;2.20;;;0.80;;
13731;SDS011;6937;56.096;12.664;2022-08-24T12:22:13;2.03;;;0.93;;
13731;SDS011;6937;56.096;12.664;2022-08-24T12:24:40;4.07;;;1.00;;
13731;SDS011;6937;56.096;12.664;2022-08-24T12:27:11;3.20;;;0.90;;
13731;SDS011;6937;56.096;12.664;2022-08-24T12:32:35;2.42;;;1.00;;
13731;SDS011;6937;56.096;12.664;2022-08-24T12:35:11;1.83;;;1.00;;
13731;SDS011;6937;56.096;12.664;2022-08-24T12:37:54;1.85;;;0.95;;
13731;SDS011;6937;56.096;12.664;2022-08-24T12:40:46;2.15;;;0.90;;
13731;SDS011;6937;56.096;12.664;2022-08-24T12:43:19;1.55;;;0.70;;
13731;SDS011;6937;56.096;12.664;2022-08-24T12:45:49;2.00;;;0.95;;
13731;SDS011;6937;56.096;12.664;2022-08-24T12:48:23;2.28;;;1.00;;
13731;SDS011;6937;56.096;12.664;2022-08-24T13:01:04;1.85;;;1.00;;
13731;SDS011;6937;56.096;12.664;2022-08-24T13:03:32;3.10;;;1.00;;
13731;SDS011;6937;56.096;12.664;2022-08-24T13:06:09;1.55;;;0.75;;
13731;SDS011;6937;56.096;12.664;2022-08-24T13:08:43;5.10;;;0.90;;
13731;SDS011;6937;56.096;12.664;2022-08-24T13:11:15;2.65;;;1.02;;
13731;SDS011;6937;56.096;12.664;2022-08-24T13:19:39;3.35;;;0.95;;
13731;SDS011;6937;56.096;12.664;2022-08-24T13:29:36;2.35;;;0.70;;
13731;SDS011;6937;56.096;12.664;2022-08-24T13:32:05;2.22;;;0.90;;
13731;SDS011;6937;56.096;12.664;2022-08-24T13:34:40;2.88;;;1.00;;
13731;SDS011;6937;56.096;12.664;2022-08-24T13:37:18;3.92;;;0.90;;
13731;SDS011;6937;56.096;12.664;2022-08-24T13:39:54;3.00;;;0.82;;
13731;SDS011;6937;56.096;12.664;2022-08-24T13:45:25;3.05;;;0.90;;
13731;SDS011;6937;56.096;12.664;2022-08-24T13:48:01;3.35;;;0.80;;
13731;SDS011;6937;56.096;12.664;2022-08-24T13:56:23;2.67;;;0.90;;
13731;SDS011;6937;56.096;12.664;2022-08-24T13:59:03;1.35;;;0.90;;
13731;SDS011;6937;56.096;12.664;2022-08-24T14:24:44;1.50;;;0.75;;
13731;SDS011;6937;56.096;12.664;2022-08-24T14:27:39;2.08;;;0.80;;
13731;SDS011;6937;56.096;12.664;2022-08-24T14:38:03;1.40;;;0.85;;
13731;SDS011;6937;56.096;12.664;2022-08-24T14:41:05;1.63;;;0.90;;
13731;SDS011;6937;56.096;12.664;2022-08-24T14:43:39;2.08;;;0.90;;
13731;SDS011;6937;56.096;12.664;2022-08-24T14:46:31;1.48;;;0.88;;
13731;SDS011;6937;56.096;12.664;2022-08-24T14:49:16;1.67;;;0.88;;
13731;SDS011;6937;56.096;12.664;2022-08-24T14:51:51;1.92;;;1.00;;
13731;SDS011;6937;56.096;12.664;2022-08-24T15:04:50;0.88;;;0.70;;
13731;SDS011;6937;56.096;12.664;2022-08-24T15:09:45;2.05;;;0.70;;
13731;SDS011;6937;56.096;12.664;2022-08-24T15:12:12;3.17;;;0.85;;
13731;SDS011;6937;56.096;12.664;2022-08-24T15:14:50;1.77;;;0.98;;
13731;SDS011;6937;56.096;12.664;2022-08-24T15:17:20;1.92;;;0.82;;
13731;SDS011;6937;56.096;12.664;2022-08-24T15:22:37;1.45;;;0.95;;
13731;SDS011;6937;56.096;12.664;2022-08-24T15:25:18;1.83;;;0.80;;
13731;SDS011;6937;56.096;12.664;2022-08-24T15:28:00;3.25;;;1.30;;
13731;SDS011;6937;56.096;12.664;2022-08-24T15:30:52;2.08;;;1.27;;
13731;SDS011;6937;56.096;12.664;2022-08-24T15:33:21;1.95;;;1.15;;
13731;SDS011;6937;56.096;12.664;2022-08-24T15:35:51;2.20;;;1.38;;
13731;SDS011;6937;56.096;12.664;2022-08-24T15:38:31;1.95;;;0.93;;
13731;SDS011;6937;56.096;12.664;2022-08-24T15:41:40;3.70;;;1.13;;
13731;SDS011;6937;56.096;12.664;2022-08-24T15:44:07;1.27;;;0.88;;
13731;SDS011;6937;56.096;12.664;2022-08-24T15:46:45;2.67;;;0.80;;
13731;SDS011;6937;56.096;12.664;2022-08-24T15:51:52;1.30;;;0.73;;
13731;SDS011;6937;56.096;12.664;2022-08-24T15:56:47;1.35;;;0.80;;
13731;SDS011;6937;56.096;12.664;2022-08-24T15:59:31;1.75;;;0.88;;
13731;SDS011;6937;56.096;12.664;2022-08-24T16:02:24;5.32;;;0.70;;
13731;SDS011;6937;56.096;12.664;2022-08-24T16:07:28;3.08;;;0.90;;
13731;SDS011;6937;56.096;12.664;2022-08-24T16:10:09;2.70;;;1.08;;
13731;SDS011;6937;56.096;12.664;2022-08-24T16:12:36;1.33;;;0.90;;
13731;SDS011;6937;56.096;12.664;2022-08-24T16:15:16;1.48;;;1.00;;
13731;SDS011;6937;56.096;12.664;2022-08-24T16:17:47;2.67;;;1.10;;
13731;SDS011;6937;56.096;12.664;2022-08-24T16:20:36;1.40;;;0.73;;
13731;SDS011;6937;56.096;12.664;2022-08-24T16:23:03;1.30;;;0.90;;
13731;SDS011;6937;56.096;12.664;2022-08-24T16:25:38;1.67;;;1.00;;
13731;SDS011;6937;56.096;12.664;2022-08-24T16:30:41;3.33;;;0.98;;
13731;SDS011;6937;56.096;12.664;2022-08-24T16:33:32;1.80;;;0.80;;
13731;SDS011;6937;56.096;12.664;2022-08-24T16:36:00;5.45;;;0.93;;
13731;SDS011;6937;56.096;12.664;2022-08-24T16:38:27;1.85;;;0.88;;
13731;SDS011;6937;56.096;12.664;2022-08-24T16:41:01;4.50;;;0.90;;
13731;SDS011;6937;56.096;12.664;2022-08-24T16:43:30;1.75;;;0.80;;
13731;SDS011;6937;56.096;12.664;2022-08-24T16:45:58;1.13;;;0.70;;
13731;SDS011;6937;56.096;12.664;2022-08-24T16:48:25;3.72;;;0.90;;
13731;SDS011;6937;56.096;12.664;2022-08-24T16:50:51;2.75;;;0.98;;
13731;SDS011;6937;56.096;12.664;2022-08-24T16:53:17;5.10;;;0.90;;
13731;SDS011;6937;56.096;12.664;2022-08-24T16:55:42;3.65;;;1.15;;
13731;SDS011;6937;56.096;12.664;2022-08-24T16:58:08;2.92;;;1.02;;
13731;SDS011;6937;56.096;12.664;2022-08-24T17:00:33;2.42;;;1.00;;
13731;SDS011;6937;56.096;12.664;2022-08-24T17:02:59;2.83;;;1.20;;
13731;SDS011;6937;56.096;12.664;2022-08-24T17:05:24;2.20;;;1.00;;
13731;SDS011;6937;56.096;12.664;2022-08-24T17:07:51;1.67;;;1.00;;
13731;SDS011;6937;56.096;12.664;2022-08-24T17:10:17;2.88;;;1.20;;
13731;SDS011;6937;56.096;12.664;2022-08-24T17:12:44;1.13;;;0.80;;
13731;SDS011;6937;56.096;12.664;2022-08-24T17:15:10;2.17;;;1.17;;
13731;SDS011;6937;56.096;12.664;2022-08-24T17:17:40;3.17;;;1.73;;
13731;SDS011;6937;56.096;12.664;2022-08-24T17:20:17;6.65;;;4.05;;
13731;SDS011;6937;56.096;12.664;2022-08-24T17:22:42;6.13;;;4.10;;
13731;SDS011;6937;56.096;12.664;2022-08-24T17:25:08;3.28;;;1.50;;
13731;SDS011;6937;56.096;12.664;2022-08-24T17:27:34;6.70;;;3.15;;
13731;SDS011;6937;56.096;12.664;2022-08-24T17:29:59;3.95;;;2.00;;
13731;SDS011;6937;56.096;12.664;2022-08-24T17:32:26;3.33;;;1.50;;
13731;SDS011;6937;56.096;12.664;2022-08-24T17:34:52;2.92;;;1.30;;
13731;SDS011;6937;56.096;12.664;2022-08-24T17:37:17;2.53;;;1.30;;
13731;SDS011;6937;56.096;12.664;2022-08-24T17:39:43;3.67;;;1.40;;
13731;SDS011;6937;56.096;12.664;2022-08-24T17:42:09;1.88;;;1.30;;
13731;SDS011;6937;56.096;12.664;2022-08-24T17:44:34;1.23;;;0.98;;
13731;SDS011;6937;56.096;12.664;2022-08-24T17:47:01;3.28;;;1.20;;
13731;SDS011;6937;56.096;12.664;2022-08-24T17:49:28;5.45;;;1.30;;
13731;SDS011;6937;56.096;12.664;2022-08-24T17:51:55;2.40;;;1.30;;
13731;SDS011;6937;56.096;12.664;2022-08-24T17:54:22;2.45;;;1.25;;
13731;SDS011;6937;56.096;12.664;2022-08-24T17:56:48;4.80;;;1.50;;
13731;SDS011;6937;56.096;12.664;2022-08-24T17:59:15;5.68;;;1.38;;
13731;SDS011;6937;56.096;12.664;2022-08-24T18:01:52;1.80;;;1.10;;
13731;SDS011;6937;56.096;12.664;2022-08-24T18:04:39;2.95;;;1.38;;
13731;SDS011;6937;56.096;12.664;2022-08-24T18:07:06;2.00;;;1.08;;
13731;SDS011;6937;56.096;12.664;2022-08-24T18:09:34;1.95;;;1.20;;
13731;SDS011;6937;56.096;12.664;2022-08-24T18:12:06;2.92;;;1.20;;
13731;SDS011;6937;56.096;12.664;2022-08-24T18:14:33;3.72;;;1.55;;
13731;SDS011;6937;56.096;12.664;2022-08-24T18:17:00;3.30;;;1.10;;
13731;SDS011;6937;56.096;12.664;2022-08-24T18:19:28;2.72;;;1.55;;
13731;SDS011;6937;56.096;12.664;2022-08-24T18:21:55;5.80;;;3.95;;
13731;SDS011;6937;56.096;12.664;2022-08-24T18:24:20;4.30;;;3.90;;
13731;SDS011;6937;56.096;12.664;2022-08-24T18:26:46;5.45;;;2.75;;
13731;SDS011;6937;56.096;12.664;2022-08-24T18:29:16;3.67;;;1.85;;
13731;SDS011;6937;56.096;12.664;2022-08-24T18:31:45;2.78;;;1.48;;
13731;SDS011;6937;56.096;12.664;2022-08-24T18:34:12;4.57;;;1.40;;
13731;SDS011;6937;56.096;12.664;2022-08-24T18:36:41;3.33;;;1.50;;
13731;SDS011;6937;56.096;12.664;2022-08-24T18:39:06;3.75;;;1.40;;
13731;SDS011;6937;56.096;12.664;2022-08-24T18:41:33;3.38;;;1.70;;
13731;SDS011;6937;56.096;12.664;2022-08-24T18:44:05;2.80;;;1.50;;